Time;durP1;ratioP1;P1;durP2;ratioP2;P2;SDS_P1;SDS_P2;PMS_P1;PMS_P2;Temp;Humidity;BMP_temperature;BMP_pressure;BME280_temperature;BME280_humidity;BME280_pressure;Samples;Min_cycle;Max_cycle;Signal;HPM_P1;HPM_P2
2022/09/19 00:01:38;;;;;;;0.10;0.10;;;10.20;99.90;;;;;;5075172;28;20054;-80
2022/09/19 00:04:07;;;;;;;0.10;0.10;;;10.30;99.90;;;;;;5075631;28;20404;-81
2022/09/19 00:06:36;;;;;;;0.10;0.10;;;10.30;99.90;;;;;;5077549;28;20044;-81
2022/09/19 00:09:04;;;;;;;0.10;0.10;;;10.30;99.90;;;;;;5072042;28;20047;-79
2022/09/19 00:11:33;;;;;;;0.10;0.10;;;10.30;99.90;;;;;;5078121;28;20071;-81
2022/09/19 00:14:00;;;;;;;0.10;0.10;;;10.30;99.90;;;;;;5074189;28;20052;-80
2022/09/19 00:16:30;;;;;;;0.10;0.10;;;10.30;99.90;;;;;;5072945;28;20042;-80
2022/09/19 00:18:59;;;;;;;0.03;0.03;;;10.30;99.90;;;;;;5075768;28;20462;-81
2022/09/19 00:21:28;;;;;;;0.10;0.10;;;10.30;99.90;;;;;;5070532;28;20036;-80
2022/09/19 00:26:43;;;;;;;0.10;0.10;;;10.20;99.90;;;;;;5074501;28;20040;-82
2022/09/19 00:29:10;;;;;;;0.00;0.00;;;10.30;99.90;;;;;;5064380;28;20524;-80
2022/09/19 00:31:36;;;;;;;0.05;0.05;;;10.20;99.90;;;;;;5065691;28;20044;-80
2022/09/19 00:34:06;;;;;;;0.10;0.10;;;10.20;99.90;;;;;;5066767;28;20413;-79
2022/09/19 00:36:33;;;;;;;0.10;0.10;;;10.00;99.90;;;;;;5085174;28;20053;-80
2022/09/19 00:39:01;;;;;;;0.10;0.10;;;10.00;99.90;;;;;;5068585;28;20506;-79
2022/09/19 00:41:29;;;;;;;0.10;0.10;;;10.00;99.90;;;;;;5069779;28;20063;-80
2022/09/19 00:43:59;;;;;;;0.10;0.10;;;10.00;99.90;;;;;;5068430;28;20304;-80
2022/09/19 00:46:28;;;;;;;0.10;0.10;;;9.90;99.90;;;;;;5064500;28;20586;-80
2022/09/19 00:48:59;;;;;;;0.10;0.10;;;9.90;99.90;;;;;;5069360;28;20044;-80
2022/09/19 00:51:31;;;;;;;0.10;0.10;;;10.00;99.90;;;;;;5068644;28;20047;-81
2022/09/19 00:54:01;;;;;;;0.10;0.10;;;9.90;99.90;;;;;;5066064;28;20037;-79
2022/09/19 00:56:29;;;;;;;0.10;0.10;;;10.00;99.90;;;;;;5071717;28;20415;-80
2022/09/19 00:58:59;;;;;;;0.00;0.00;;;9.90;99.90;;;;;;5066586;28;20036;-80
2022/09/19 01:01:25;;;;;;;0.10;0.10;;;9.90;99.90;;;;;;5064779;28;20041;-79
2022/09/19 01:03:53;;;;;;;0.10;0.10;;;9.80;99.90;;;;;;5066355;28;20416;-80
2022/09/19 01:06:41;;;;;;;0.10;0.10;;;9.90;99.90;;;;;;5071765;28;20032;-80
2022/09/19 01:09:25;;;;;;;0.10;0.10;;;9.90;99.90;;;;;;5065960;28;20044;-80
2022/09/19 01:12:07;;;;;;;0.10;0.10;;;9.90;99.90;;;;;;5070021;28;20051;-79
2022/09/19 01:14:54;;;;;;;0.10;0.10;;;9.90;99.90;;;;;;5062826;28;20051;-80
2022/09/19 01:17:28;;;;;;;0.10;0.10;;;9.90;99.90;;;;;;5081433;28;20041;-80
2022/09/19 01:20:24;;;;;;;0.00;0.00;;;10.00;99.90;;;;;;5071973;28;20123;-80
2022/09/19 01:23:05;;;;;;;0.08;0.08;;;10.00;99.90;;;;;;5056268;28;20055;-80
2022/09/19 01:25:46;;;;;;;0.10;0.10;;;10.10;99.90;;;;;;5067876;28;20048;-79
2022/09/19 01:28:20;;;;;;;0.00;0.00;;;10.00;99.90;;;;;;5081623;28;20048;-81
2022/09/19 01:31:16;;;;;;;0.10;0.10;;;10.00;99.90;;;;;;5061329;28;20035;-80
2022/09/19 01:33:46;;;;;;;0.10;0.10;;;10.00;99.90;;;;;;5067689;28;20559;-80
2022/09/19 01:36:14;;;;;;;0.10;0.10;;;10.00;99.90;;;;;;5068561;28;20055;-80
2022/09/19 01:38:43;;;;;;;0.00;0.00;;;10.00;99.90;;;;;;5070659;28;20032;-82
2022/09/19 01:41:11;;;;;;;0.10;0.10;;;10.00;99.90;;;;;;5060904;28;20055;-80
2022/09/19 01:43:39;;;;;;;0.10;0.10;;;9.80;99.90;;;;;;5066835;28;20052;-81
2022/09/19 01:46:21;;;;;;;0.10;0.10;;;9.90;99.90;;;;;;5067637;28;20036;-79
2022/09/19 01:48:54;;;;;;;0.10;0.10;;;10.00;99.90;;;;;;5067849;28;20080;-81
2022/09/19 01:51:29;;;;;;;0.10;0.10;;;9.90;99.90;;;;;;5068343;28;20032;-80
2022/09/19 01:54:26;;;;;;;0.00;0.00;;;9.90;99.90;;;;;;5069817;28;20044;-80
2022/09/19 01:57:01;;;;;;;0.03;0.03;;;10.00;99.90;;;;;;5070704;28;20052;-80
2022/09/19 01:59:44;;;;;;;0.10;0.10;;;10.00;99.90;;;;;;5063422;28;20068;-80
2022/09/19 02:02:22;;;;;;;0.10;0.10;;;10.00;99.90;;;;;;5067299;28;20040;-82
2022/09/19 02:04:56;;;;;;;0.10;0.10;;;9.90;99.90;;;;;;5063862;28;20094;-80
2022/09/19 02:07:27;;;;;;;0.10;0.10;;;10.00;99.90;;;;;;5065087;28;20135;-79
2022/09/19 02:10:00;;;;;;;0.00;0.00;;;10.00;99.90;;;;;;5071676;28;20060;-77
2022/09/19 02:12:30;;;;;;;0.10;0.10;;;10.10;99.90;;;;;;5072383;28;20039;-81
2022/09/19 02:15:01;;;;;;;0.10;0.10;;;10.10;99.90;;;;;;5066303;28;20044;-80
2022/09/19 02:17:33;;;;;;;0.10;0.10;;;10.10;99.90;;;;;;5058450;28;20041;-79
2022/09/19 02:20:07;;;;;;;0.10;0.10;;;10.20;99.90;;;;;;5067742;28;20043;-80
2022/09/19 02:22:39;;;;;;;0.10;0.10;;;10.20;99.90;;;;;;5068647;28;20041;-80
2022/09/19 02:25:11;;;;;;;0.10;0.10;;;10.20;99.90;;;;;;5058466;28;20408;-80
2022/09/19 02:27:43;;;;;;;0.10;0.10;;;10.30;99.90;;;;;;5069914;28;20048;-79
2022/09/19 02:30:12;;;;;;;0.05;0.05;;;10.30;99.90;;;;;;5068822;28;20040;-81
2022/09/19 02:32:46;;;;;;;0.00;0.00;;;10.30;99.90;;;;;;5064272;28;20047;-80
2022/09/19 02:35:14;;;;;;;0.08;0.08;;;10.40;99.90;;;;;;5065481;28;20581;-80
2022/09/19 02:37:46;;;;;;;0.10;0.10;;;10.30;99.90;;;;;;5074036;28;20056;-80
2022/09/19 02:40:21;;;;;;;0.00;0.00;;;10.30;99.90;;;;;;5073523;28;20040;-79
2022/09/19 02:42:56;;;;;;;0.10;0.10;;;10.20;99.90;;;;;;5067790;28;20076;-79
2022/09/19 02:45:28;;;;;;;0.00;0.00;;;10.30;99.90;;;;;;5064736;28;20056;-79
2022/09/19 02:48:03;;;;;;;0.00;0.00;;;10.40;99.90;;;;;;5070395;28;20044;-81
2022/09/19 02:50:36;;;;;;;0.10;0.10;;;10.40;99.90;;;;;;5065366;28;20041;-78
2022/09/19 02:53:08;;;;;;;0.10;0.10;;;10.60;99.90;;;;;;5061618;28;20033;-81
2022/09/19 02:55:44;;;;;;;0.00;0.00;;;10.50;99.90;;;;;;5065012;28;20036;-81
2022/09/19 02:58:14;;;;;;;0.00;0.00;;;10.50;99.90;;;;;;5065647;28;20040;-80
2022/09/19 03:00:43;;;;;;;;;;;10.40;99.90;;;;;;5068104;28;20045;-79
2022/09/19 03:06:02;;;;;;;0.10;0.10;;;10.50;99.90;;;;;;5069740;28;20047;-79
2022/09/19 03:08:36;;;;;;;0.10;0.10;;;10.50;99.90;;;;;;5071417;28;20086;-80
2022/09/19 03:11:07;;;;;;;0.00;0.00;;;10.60;99.90;;;;;;5065968;28;20497;-81
2022/09/19 03:13:36;;;;;;;0.10;0.10;;;10.50;99.90;;;;;;5069682;28;20420;-80
2022/09/19 03:16:08;;;;;;;0.10;0.10;;;10.50;99.90;;;;;;5081381;28;20043;-81
2022/09/19 03:18:36;;;;;;;0.10;0.10;;;10.50;99.90;;;;;;5069568;28;20053;-79
2022/09/19 03:21:07;;;;;;;0.10;0.10;;;10.50;99.90;;;;;;5059424;28;20485;-80
2022/09/19 03:23:38;;;;;;;0.00;0.00;;;10.50;99.90;;;;;;5067085;28;20484;-79
2022/09/19 03:26:09;;;;;;;0.00;0.00;;;10.50;99.90;;;;;;5066985;28;20045;-81
2022/09/19 03:28:36;;;;;;;0.00;0.00;;;10.60;99.90;;;;;;5065499;28;20408;-80
2022/09/19 03:31:04;;;;;;;0.10;0.10;;;10.60;99.90;;;;;;5058234;28;20485;-80
2022/09/19 03:33:31;;;;;;;0.10;0.10;;;10.50;99.90;;;;;;5065401;28;20036;-81
2022/09/19 03:35:59;;;;;;;0.00;0.00;;;10.60;99.90;;;;;;5068346;28;20042;-80
2022/09/19 03:38:26;;;;;;;0.00;0.00;;;10.60;99.90;;;;;;5066743;28;20033;-81
2022/09/19 03:40:53;;;;;;;0.00;0.00;;;10.60;99.90;;;;;;5065807;28;20032;-80
2022/09/19 03:43:20;;;;;;;0.00;0.00;;;10.70;99.90;;;;;;5063801;28;20419;-80
2022/09/19 03:45:46;;;;;;;0.03;0.03;;;10.70;99.90;;;;;;5066802;28;20532;-81
2022/09/19 03:48:15;;;;;;;0.10;0.10;;;10.70;99.90;;;;;;5067674;28;20063;-80
2022/09/19 03:50:43;;;;;;;0.10;0.10;;;10.70;99.90;;;;;;5077671;28;20040;-79
2022/09/19 03:53:11;;;;;;;0.10;0.10;;;10.60;99.90;;;;;;5069186;28;20045;-80
2022/09/19 03:55:40;;;;;;;0.10;0.10;;;10.60;99.90;;;;;;5067831;28;20038;-80
2022/09/19 03:58:09;;;;;;;0.08;0.08;;;10.70;99.90;;;;;;5068596;28;20492;-80
2022/09/19 04:00:36;;;;;;;0.00;0.00;;;10.70;99.90;;;;;;5071929;28;20654;-80
2022/09/19 04:03:03;;;;;;;0.00;0.00;;;10.70;99.90;;;;;;5071193;28;20029;-81
2022/09/19 04:05:32;;;;;;;0.10;0.10;;;10.60;99.90;;;;;;5079207;28;20111;-80
2022/09/19 04:08:01;;;;;;;0.08;0.08;;;10.60;99.90;;;;;;5064647;28;20040;-76
2022/09/19 04:10:28;;;;;;;0.10;0.10;;;10.60;99.90;;;;;;5076504;28;20084;-80
2022/09/19 04:12:56;;;;;;;0.00;0.00;;;10.70;99.90;;;;;;5072789;28;20052;-80
2022/09/19 04:15:23;;;;;;;0.00;0.00;;;10.70;99.90;;;;;;5070579;28;20064;-81
2022/09/19 04:17:49;;;;;;;0.00;0.00;;;10.70;99.90;;;;;;5071322;28;20080;-80
2022/09/19 04:20:16;;;;;;;0.10;0.10;;;10.70;99.90;;;;;;5067196;28;20051;-79
2022/09/19 04:22:45;;;;;;;0.10;0.10;;;10.60;99.90;;;;;;5071475;28;20052;-80
2022/09/19 04:25:14;;;;;;;0.10;0.10;;;10.60;99.90;;;;;;5067264;28;20552;-80
2022/09/19 04:27:41;;;;;;;0.00;0.00;;;10.70;99.90;;;;;;5070258;28;20045;-79
2022/09/19 04:30:10;;;;;;;0.00;0.00;;;10.60;99.90;;;;;;5063741;28;20055;-81
2022/09/19 04:32:39;;;;;;;0.00;0.00;;;10.70;99.90;;;;;;5068443;28;20580;-80
2022/09/19 04:35:06;;;;;;;0.00;0.00;;;10.70;99.90;;;;;;5070943;28;20131;-81
2022/09/19 04:37:33;;;;;;;0.00;0.00;;;10.70;99.90;;;;;;5073658;28;20044;-81
2022/09/19 04:40:01;;;;;;;0.10;0.10;;;10.50;99.90;;;;;;5070596;28;20407;-81
2022/09/19 04:42:28;;;;;;;0.00;0.00;;;10.50;99.90;;;;;;5066401;28;20055;-80
2022/09/19 04:44:56;;;;;;;0.00;0.00;;;10.50;99.90;;;;;;5066800;28;20048;-81
2022/09/19 04:47:23;;;;;;;0.10;0.10;;;10.50;99.90;;;;;;5071930;28;20052;-79
2022/09/19 04:49:50;;;;;;;0.00;0.00;;;10.40;99.90;;;;;;5071920;28;20060;-81
2022/09/19 04:52:16;;;;;;;0.00;0.00;;;10.40;99.90;;;;;;5071850;28;20048;-80
2022/09/19 04:54:45;;;;;;;0.10;0.10;;;10.40;99.90;;;;;;5078617;28;20048;-79
2022/09/19 04:57:13;;;;;;;0.00;0.00;;;10.50;99.90;;;;;;5069744;28;20040;-80
2022/09/19 04:59:40;;;;;;;0.00;0.00;;;10.50;99.90;;;;;;5072479;28;20435;-80
2022/09/19 05:02:08;;;;;;;0.10;0.10;;;10.40;99.90;;;;;;5078851;28;20051;-81
2022/09/19 05:04:35;;;;;;;0.10;0.10;;;10.50;99.90;;;;;;5073287;28;20032;-81
2022/09/19 05:07:03;;;;;;;0.03;0.03;;;10.50;99.90;;;;;;5077505;28;20053;-79
2022/09/19 05:09:30;;;;;;;0.00;0.00;;;10.60;99.90;;;;;;5067152;28;20580;-80
2022/09/19 05:11:56;;;;;;;0.05;0.05;;;10.60;99.90;;;;;;5073498;28;20389;-81
2022/09/19 05:14:28;;;;;;;0.00;0.00;;;10.70;99.90;;;;;;5079916;28;20119;-80
2022/09/19 05:16:55;;;;;;;0.10;0.10;;;10.70;99.90;;;;;;5070831;28;20036;-80
2022/09/19 05:19:22;;;;;;;0.10;0.10;;;10.70;99.90;;;;;;5071320;28;20045;-80
2022/09/19 05:21:50;;;;;;;0.00;0.00;;;10.80;99.90;;;;;;5078046;28;20489;-80
2022/09/19 05:24:18;;;;;;;0.05;0.05;;;10.80;99.90;;;;;;5066079;28;20385;-80
2022/09/19 05:26:45;;;;;;;0.05;0.05;;;10.80;99.90;;;;;;5073864;28;20041;-80
2022/09/19 05:29:13;;;;;;;0.10;0.10;;;10.90;99.90;;;;;;5071599;28;20044;-80
2022/09/19 05:31:41;;;;;;;0.00;0.00;;;10.80;99.90;;;;;;5070090;28;20048;-80
2022/09/19 05:34:13;;;;;;;0.10;0.10;;;10.80;99.90;;;;;;5067116;28;20484;-79
2022/09/19 05:36:41;;;;;;;0.00;0.00;;;10.70;99.90;;;;;;5072830;28;20029;-80
2022/09/19 05:39:09;;;;;;;0.00;0.00;;;10.70;99.90;;;;;;5070048;28;20044;-81
2022/09/19 05:41:38;;;;;;;0.00;0.00;;;10.70;99.90;;;;;;5069888;28;20121;-80
2022/09/19 05:44:05;;;;;;;0.10;0.10;;;10.80;99.90;;;;;;5077655;28;20079;-80
2022/09/19 05:46:31;;;;;;;0.08;0.08;;;10.90;99.90;;;;;;5072647;28;20048;-80
2022/09/19 05:49:00;;;;;;;0.10;0.10;;;10.80;99.90;;;;;;5075322;28;20071;-79
2022/09/19 05:51:26;;;;;;;0.00;0.00;;;10.80;99.90;;;;;;5076245;28;20032;-80
2022/09/19 05:53:55;;;;;;;0.10;0.10;;;10.80;99.90;;;;;;5072622;28;20115;-81
2022/09/19 05:56:22;;;;;;;0.10;0.10;;;10.80;99.90;;;;;;5071734;28;20557;-80
2022/09/19 05:58:52;;;;;;;0.10;0.10;;;10.80;99.90;;;;;;5069931;28;20052;-79
2022/09/19 06:01:19;;;;;;;0.10;0.10;;;10.90;99.90;;;;;;5071239;28;20048;-80
2022/09/19 06:03:46;;;;;;;0.00;0.00;;;10.80;99.90;;;;;;5071272;28;20397;-79
2022/09/19 06:06:18;;;;;;;0.00;0.00;;;10.90;99.90;;;;;;5067287;28;20041;-80
2022/09/19 06:08:47;;;;;;;0.10;0.10;;;11.00;99.90;;;;;;5064266;28;20041;-80
2022/09/19 06:11:14;;;;;;;0.00;0.00;;;11.10;99.90;;;;;;5070771;28;20024;-79
2022/09/19 06:16:26;;;;;;;0.10;0.10;;;11.30;99.90;;;;;;5065585;28;20569;-80
2022/09/19 06:18:53;;;;;;;0.10;0.10;;;11.20;99.90;;;;;;5066853;28;20079;-81
2022/09/19 06:21:21;;;;;;;0.00;0.00;;;11.30;99.90;;;;;;5068168;28;20044;-81
2022/09/19 06:23:48;;;;;;;0.00;0.00;;;11.50;99.90;;;;;;5070072;28;20058;-81
2022/09/19 06:26:16;;;;;;;0.00;0.00;;;11.50;99.90;;;;;;5068041;28;20033;-81
2022/09/19 06:28:43;;;;;;;0.00;0.00;;;11.40;99.90;;;;;;5071714;28;20055;-79
2022/09/19 06:31:10;;;;;;;0.08;0.08;;;11.60;99.90;;;;;;5069265;28;20051;-79
2022/09/19 06:33:37;;;;;;;0.00;0.00;;;11.70;99.90;;;;;;5068901;28;20052;-79
2022/09/19 06:36:04;;;;;;;0.10;0.10;;;11.80;99.90;;;;;;5067649;28;20029;-81
2022/09/19 06:38:32;;;;;;;0.00;0.00;;;11.90;99.90;;;;;;5072627;28;20067;-81
2022/09/19 06:40:59;;;;;;;0.00;0.00;;;11.90;99.90;;;;;;5073467;28;20036;-80
2022/09/19 06:43:26;;;;;;;0.00;0.00;;;11.90;99.90;;;;;;5071266;28;20141;-80
2022/09/19 06:45:53;;;;;;;0.00;0.00;;;11.80;99.90;;;;;;5063863;28;20404;-81
2022/09/19 06:48:20;;;;;;;0.00;0.00;;;11.80;99.90;;;;;;5073017;28;20098;-80
2022/09/19 06:50:48;;;;;;;0.00;0.00;;;11.80;99.90;;;;;;5066701;28;20044;-80
2022/09/19 06:53:15;;;;;;;0.00;0.00;;;11.90;99.90;;;;;;5069641;28;20043;-81
2022/09/19 06:55:44;;;;;;;0.00;0.00;;;11.80;99.90;;;;;;5067609;28;20048;-80
2022/09/19 06:58:14;;;;;;;0.00;0.00;;;11.90;99.90;;;;;;5068227;28;20527;-82
2022/09/19 07:00:44;;;;;;;0.00;0.00;;;12.00;99.90;;;;;;5068448;28;20054;-80
2022/09/19 07:03:14;;;;;;;0.00;0.00;;;12.00;99.90;;;;;;5067835;28;20046;-81
2022/09/19 07:05:42;;;;;;;0.00;0.00;;;12.20;99.90;;;;;;5067888;28;20036;-80
2022/09/19 07:08:09;;;;;;;0.00;0.00;;;12.40;99.90;;;;;;5068392;28;20041;-80
2022/09/19 07:10:36;;;;;;;0.00;0.00;;;12.50;99.90;;;;;;5068550;28;20043;-81
2022/09/19 07:13:05;;;;;;;0.00;0.00;;;12.40;99.90;;;;;;5069496;28;20484;-80
2022/09/19 07:15:34;;;;;;;0.00;0.00;;;12.30;99.90;;;;;;5064649;28;20056;-80
2022/09/19 07:18:01;;;;;;;0.00;0.00;;;12.40;99.90;;;;;;5069908;28;20039;-80
2022/09/19 07:20:28;;;;;;;0.00;0.00;;;12.30;99.90;;;;;;5067279;28;20048;-80
2022/09/19 07:22:59;;;;;;;0.05;0.05;;;12.40;99.90;;;;;;5063275;28;20047;-80
2022/09/19 07:25:27;;;;;;;0.00;0.00;;;12.50;99.90;;;;;;5067068;28;20510;-80
2022/09/19 07:27:55;;;;;;;0.00;0.00;;;12.60;99.90;;;;;;5069996;28;20029;-81
2022/09/19 07:30:27;;;;;;;0.00;0.00;;;12.70;99.90;;;;;;5071200;28;20408;-80
2022/09/19 07:32:57;;;;;;;0.00;0.00;;;12.80;99.90;;;;;;5064961;28;20049;-81
2022/09/19 07:35:25;;;;;;;0.05;0.05;;;12.80;99.90;;;;;;5067448;28;20036;-80
2022/09/19 07:37:52;;;;;;;0.00;0.00;;;12.80;99.90;;;;;;5073123;28;20033;-80
2022/09/19 07:40:19;;;;;;;0.00;0.00;;;12.60;99.90;;;;;;5074917;28;20052;-80
2022/09/19 07:42:47;;;;;;;0.00;0.00;;;12.70;99.90;;;;;;5075577;28;20515;-80
2022/09/19 07:45:16;;;;;;;0.00;0.00;;;12.80;99.90;;;;;;5080764;28;20044;-80
2022/09/19 07:47:46;;;;;;;0.00;0.00;;;12.90;99.90;;;;;;5072609;28;20048;-79
2022/09/19 07:50:16;;;;;;;0.05;0.05;;;12.90;99.90;;;;;;5071540;28;20048;-80
2022/09/19 07:52:46;;;;;;;0.00;0.00;;;12.90;99.90;;;;;;5073512;28;20542;-79
2022/09/19 07:55:13;;;;;;;0.00;0.00;;;13.00;99.90;;;;;;5077425;28;20055;-80
2022/09/19 07:57:49;;;;;;;0.00;0.00;;;13.10;99.90;;;;;;5075608;28;20097;-81
2022/09/19 08:00:17;;;;;;;0.00;0.00;;;13.20;99.90;;;;;;5083798;28;20036;-80
2022/09/19 08:02:53;;;;;;;0.00;0.00;;;13.10;99.90;;;;;;5075144;28;20055;-81
2022/09/19 08:05:21;;;;;;;0.00;0.00;;;13.30;99.90;;;;;;5071885;28;20072;-81
2022/09/19 08:07:48;;;;;;;0.00;0.00;;;13.40;99.90;;;;;;5071080;28;20041;-81
2022/09/19 08:10:15;;;;;;;0.00;0.00;;;13.50;99.90;;;;;;5076826;28;20040;-80
2022/09/19 08:12:44;;;;;;;0.00;0.00;;;13.60;99.90;;;;;;5079462;28;20067;-80
2022/09/19 08:15:15;;;;;;;0.00;0.00;;;13.50;99.90;;;;;;5072794;28;20485;-80
2022/09/19 08:17:42;;;;;;;0.00;0.00;;;13.50;99.90;;;;;;5079847;28;20040;-80
2022/09/19 08:20:12;;;;;;;0.00;0.00;;;13.50;99.90;;;;;;5077615;28;20047;-80
2022/09/19 08:22:38;;;;;;;0.00;0.00;;;13.50;99.90;;;;;;5080205;28;20051;-79
2022/09/19 08:25:06;;;;;;;0.00;0.00;;;13.50;99.90;;;;;;5068399;28;20044;-80
2022/09/19 08:27:33;;;;;;;0.00;0.00;;;13.50;99.90;;;;;;5064388;28;20386;-80
2022/09/19 08:30:00;;;;;;;0.03;0.03;;;13.70;99.90;;;;;;5070139;28;20044;-80
2022/09/19 08:32:28;;;;;;;0.00;0.00;;;13.80;99.90;;;;;;5065825;28;20044;-80
2022/09/19 08:34:54;;;;;;;0.00;0.00;;;13.80;99.90;;;;;;5066883;28;20119;-82
2022/09/19 08:37:22;;;;;;;0.00;0.00;;;13.70;99.90;;;;;;5072456;28;20059;-81
2022/09/19 08:42:42;;;;;;;0.00;0.00;;;13.60;99.90;;;;;;5069840;28;20044;-79
2022/09/19 08:45:16;;;;;;;0.00;0.00;;;13.80;99.90;;;;;;5065854;28;20523;-81
2022/09/19 08:47:45;;;;;;;0.00;0.00;;;13.90;99.90;;;;;;5062066;28;20052;-80
2022/09/19 08:50:17;;;;;;;0.10;0.10;;;13.90;99.90;;;;;;5073653;28;20043;-81
2022/09/19 08:52:48;;;;;;;0.00;0.00;;;13.80;99.90;;;;;;5070150;28;20057;-80
2022/09/19 08:55:18;;;;;;;0.00;0.00;;;13.80;99.90;;;;;;5066693;28;20054;-79
2022/09/19 08:57:51;;;;;;;0.00;0.00;;;13.70;99.90;;;;;;5068108;28;20072;-79
2022/09/19 09:00:20;;;;;;;0.10;0.10;;;13.60;99.90;;;;;;5069987;28;20047;-81
2022/09/19 09:02:54;;;;;;;0.00;0.00;;;13.70;99.90;;;;;;5071902;28;20500;-80
2022/09/19 09:05:47;;;;;;;0.00;0.00;;;13.70;99.90;;;;;;5067395;28;20456;-78
2022/09/19 09:08:32;;;;;;;0.00;0.00;;;13.50;99.90;;;;;;5066766;28;20040;-79
2022/09/19 09:11:09;;;;;;;0.00;0.00;;;13.70;99.90;;;;;;5084523;28;20044;-79
2022/09/19 09:13:48;;;;;;;0.00;0.00;;;13.70;99.90;;;;;;5075347;28;20499;-80
2022/09/19 09:16:36;;;;;;;0.00;0.00;;;13.70;99.90;;;;;;5062774;28;20075;-79
2022/09/19 09:19:30;;;;;;;0.00;0.00;;;13.60;99.90;;;;;;5071522;28;20094;-80
2022/09/19 09:22:04;;;;;;;0.00;0.00;;;13.80;99.90;;;;;;5068648;28;20048;-80
2022/09/19 09:24:36;;;;;;;0.00;0.00;;;13.80;99.90;;;;;;5068435;28;20051;-79
2022/09/19 09:27:10;;;;;;;0.00;0.00;;;13.90;99.90;;;;;;5073020;28;20044;-80
2022/09/19 09:29:41;;;;;;;0.00;0.00;;;14.10;99.90;;;;;;5065769;28;20032;-80
2022/09/19 09:32:15;;;;;;;0.00;0.00;;;14.40;99.90;;;;;;5076109;28;20038;-80
2022/09/19 09:34:49;;;;;;;0.00;0.00;;;14.60;99.90;;;;;;5076387;28;20564;-80
2022/09/19 09:37:21;;;;;;;0.10;0.10;;;14.70;99.90;;;;;;5091518;28;20120;-80
2022/09/19 09:40:00;;;;;;;0.00;0.00;;;14.60;99.90;;;;;;5077509;28;20052;-80
2022/09/19 09:42:33;;;;;;;0.00;0.00;;;14.70;99.90;;;;;;5074290;28;20087;-81
2022/09/19 09:45:06;;;;;;;0.00;0.00;;;14.70;99.90;;;;;;5074254;28;20040;-79
2022/09/19 09:47:43;;;;;;;0.00;0.00;;;14.60;99.90;;;;;;5068856;28;20503;-81
2022/09/19 09:50:36;;;;;;;0.00;0.00;;;14.40;99.90;;;;;;5086723;28;20457;-80
2022/09/19 09:53:14;;;;;;;0.00;0.00;;;14.40;99.90;;;;;;5074665;28;20040;-81
2022/09/19 09:58:52;;;;;;;0.00;0.00;;;14.70;99.90;;;;;;5052413;28;20044;-81
2022/09/19 10:04:23;;;;;;;0.00;0.00;;;15.40;99.90;;;;;;5073780;28;20394;-80
2022/09/19 10:06:57;;;;;;;0.00;0.00;;;15.50;99.90;;;;;;5070470;28;20095;-80
2022/09/19 10:09:30;;;;;;;0.00;0.00;;;15.10;99.90;;;;;;5083681;28;20059;-81
2022/09/19 10:12:07;;;;;;;0.00;0.00;;;14.60;99.90;;;;;;5072294;28;20046;-80
2022/09/19 10:14:58;;;;;;;0.00;0.00;;;14.40;99.90;;;;;;5075497;28;20458;-80
2022/09/19 10:17:37;;;;;;;0.00;0.00;;;14.30;99.90;;;;;;5073493;28;20037;-79
2022/09/19 10:20:11;;;;;;;0.00;0.00;;;14.00;99.90;;;;;;5068464;28;20051;-80
2022/09/19 10:22:37;;;;;;;0.00;0.00;;;14.00;99.90;;;;;;5073273;28;20118;-80
2022/09/19 10:25:09;;;;;;;0.00;0.00;;;14.00;99.90;;;;;;5076934;28;20041;-80
2022/09/19 10:27:41;;;;;;;0.00;0.00;;;14.10;99.90;;;;;;5088404;28;20041;-81
2022/09/19 10:30:18;;;;;;;0.00;0.00;;;14.10;99.90;;;;;;5077380;28;20042;-80
2022/09/19 10:32:46;;;;;;;0.05;0.05;;;14.10;99.90;;;;;;5072704;28;20054;-80
2022/09/19 10:35:26;;;;;;;0.00;0.00;;;14.10;99.90;;;;;;5066180;28;20052;-79
2022/09/19 10:37:59;;;;;;;0.00;0.00;;;14.10;99.90;;;;;;5067641;28;20052;-79
2022/09/19 10:40:26;;;;;;;0.00;0.00;;;14.20;99.90;;;;;;5065014;28;20075;-80
2022/09/19 10:42:55;;;;;;;0.00;0.00;;;14.20;99.90;;;;;;5059485;28;20055;-79
2022/09/19 10:45:25;;;;;;;0.00;0.00;;;14.10;99.90;;;;;;5061866;28;20064;-79
2022/09/19 10:47:57;;;;;;;0.00;0.00;;;14.10;99.90;;;;;;5064540;28;20497;-80
2022/09/19 10:50:24;;;;;;;0.00;0.00;;;14.20;99.90;;;;;;5064495;28;20050;-80
2022/09/19 10:52:59;;;;;;;0.00;0.00;;;14.20;99.90;;;;;;5067398;28;20053;-80
2022/09/19 10:55:27;;;;;;;0.00;0.00;;;14.40;99.90;;;;;;5062241;28;20524;-80
2022/09/19 10:57:59;;;;;;;0.00;0.00;;;14.70;99.90;;;;;;5062494;28;20262;-81
2022/09/19 11:00:28;;;;;;;0.00;0.00;;;14.80;99.90;;;;;;5065742;28;20054;-81
2022/09/19 11:03:05;;;;;;;0.00;0.00;;;15.00;99.90;;;;;;5057824;28;20571;-80
2022/09/19 11:05:34;;;;;;;0.00;0.00;;;14.90;99.90;;;;;;5065066;28;20074;-81
2022/09/19 11:08:02;;;;;;;0.00;0.00;;;14.90;99.90;;;;;;5053680;28;20500;-80
2022/09/19 11:10:37;;;;;;;0.10;0.10;;;14.80;99.90;;;;;;5061815;28;20068;-79
2022/09/19 11:13:11;;;;;;;0.00;0.00;;;14.80;99.90;;;;;;5067365;28;20543;-80
2022/09/19 11:15:58;;;;;;;0.03;0.03;;;14.90;99.90;;;;;;5073753;28;20041;-80
2022/09/19 11:18:36;;;;;;;0.00;0.00;;;15.00;99.90;;;;;;5067851;28;20123;-81
2022/09/19 11:21:10;;;;;;;0.00;0.00;;;14.80;99.90;;;;;;5070394;28;20093;-80
2022/09/19 11:23:56;;;;;;;0.00;0.00;;;14.60;99.90;;;;;;5064198;28;20422;-79
2022/09/19 11:26:32;;;;;;;0.00;0.00;;;14.60;99.90;;;;;;5074837;28;20044;-80
2022/09/19 11:29:18;;;;;;;0.00;0.00;;;14.40;99.90;;;;;;5081681;28;20055;-81
2022/09/19 11:32:03;;;;;;;0.00;0.00;;;14.30;99.90;;;;;;5072326;28;20115;-81
2022/09/19 11:34:58;;;;;;;0.00;0.00;;;14.30;99.90;;;;;;5053603;28;20056;-82
2022/09/19 11:37:54;;;;;;;0.00;0.00;;;14.00;99.90;;;;;;5053289;28;20420;-80
2022/09/19 11:40:36;;;;;;;0.00;0.00;;;14.00;99.90;;;;;;5045207;28;20041;-80
2022/09/19 11:43:13;;;;;;;0.00;0.00;;;14.10;99.90;;;;;;5048444;28;20033;-79
2022/09/19 11:45:54;;;;;;;0.00;0.00;;;14.00;99.90;;;;;;5045783;28;20037;-79
2022/09/19 11:48:54;;;;;;;0.00;0.00;;;14.20;99.90;;;;;;5041802;28;20044;-81
2022/09/19 11:51:26;;;;;;;;;;;14.40;99.90;;;;;;5049411;28;20454;-80
2022/09/19 11:54:18;;;;;;;0.00;0.00;;;14.40;99.90;;;;;;5046672;28;19927;-79
2022/09/19 11:56:59;;;;;;;0.00;0.00;;;14.40;99.90;;;;;;5039845;28;20710;-79
2022/09/19 11:59:54;;;;;;;0.00;0.00;;;14.50;99.90;;;;;;5048769;28;20045;-81
2022/09/19 12:02:39;;;;;;;0.00;0.00;;;14.50;99.90;;;;;;5070517;28;20687;-79
2022/09/19 12:05:15;;;;;;;0.00;0.00;;;14.60;99.90;;;;;;5056724;28;20045;-79
2022/09/19 12:07:54;;;;;;;0.00;0.00;;;14.80;99.90;;;;;;5065245;28;20472;-80
2022/09/19 12:10:25;;;;;;;0.00;0.00;;;14.90;99.90;;;;;;5063642;28;20053;-81
2022/09/19 12:12:57;;;;;;;0.00;0.00;;;14.70;99.90;;;;;;5063435;28;20730;-79
2022/09/19 12:15:26;;;;;;;0.00;0.00;;;14.60;99.90;;;;;;5059888;28;20046;-78
2022/09/19 12:17:59;;;;;;;0.00;0.00;;;14.50;99.90;;;;;;5062035;28;20552;-82
2022/09/19 12:20:34;;;;;;;0.00;0.00;;;14.10;99.90;;;;;;5061695;28;20148;-81
2022/09/19 12:25:58;;;;;;;0.00;0.00;;;13.70;99.90;;;;;;5066323;28;20115;-80
2022/09/19 12:28:30;;;;;;;0.00;0.00;;;13.70;99.90;;;;;;5070299;28;20071;-79
2022/09/19 12:31:00;;;;;;;0.00;0.00;;;13.70;99.90;;;;;;5069780;28;20076;-81
2022/09/19 12:33:34;;;;;;;0.00;0.00;;;13.70;99.90;;;;;;5064684;28;20048;-80
2022/09/19 12:36:07;;;;;;;0.00;0.00;;;13.80;99.90;;;;;;5064081;28;20040;-80
2022/09/19 12:38:39;;;;;;;0.00;0.00;;;13.90;99.90;;;;;;5066548;28;20047;-79
2022/09/19 12:41:14;;;;;;;0.00;0.00;;;14.10;99.90;;;;;;5061731;28;20051;-79
2022/09/19 12:43:52;;;;;;;0.00;0.00;;;14.30;99.90;;;;;;5064590;28;20052;-79
2022/09/19 12:46:33;;;;;;;0.00;0.00;;;14.60;99.90;;;;;;5057590;28;20124;-81
2022/09/19 12:49:12;;;;;;;0.00;0.00;;;15.00;99.90;;;;;;5078942;28;20037;-81
2022/09/19 12:51:49;;;;;;;0.00;0.00;;;15.20;99.90;;;;;;5069337;28;20599;-80
2022/09/19 12:54:20;;;;;;;0.00;0.00;;;15.20;99.90;;;;;;5062469;28;20514;-81
2022/09/19 12:56:54;;;;;;;0.00;0.00;;;15.10;99.90;;;;;;5065548;28;20521;-80
2022/09/19 12:59:23;;;;;;;0.00;0.00;;;15.00;99.90;;;;;;5067468;28;20041;-81
2022/09/19 13:01:56;;;;;;;0.00;0.00;;;14.90;99.90;;;;;;5065210;28;20076;-80
2022/09/19 13:04:31;;;;;;;0.00;0.00;;;14.70;99.90;;;;;;5068106;28;20051;-80
2022/09/19 13:07:07;;;;;;;0.00;0.00;;;14.60;99.90;;;;;;5068406;28;20496;-80
2022/09/19 13:09:41;;;;;;;0.00;0.00;;;14.60;99.90;;;;;;5064445;28;20033;-79
2022/09/19 13:12:14;;;;;;;0.00;0.00;;;14.50;99.90;;;;;;5063387;28;20040;-79
2022/09/19 13:14:47;;;;;;;0.00;0.00;;;14.50;99.90;;;;;;5061471;28;20052;-79
2022/09/19 13:25:57;;;;;;;0.00;0.00;;;14.50;99.90;;;;;;5000418;28;20042;-80
2022/09/19 13:28:44;;;;;;;0.00;0.00;;;14.50;99.90;;;;;;5053014;28;20052;-79
2022/09/19 13:31:17;;;;;;;0.00;0.00;;;14.50;99.90;;;;;;5057124;28;20500;-80
2022/09/19 13:33:48;;;;;;;0.00;0.00;;;14.30;99.90;;;;;;5066038;28;20455;-80
2022/09/19 13:36:36;;;;;;;0.00;0.00;;;14.10;99.90;;;;;;5069009;28;20040;-79
2022/09/19 13:39:07;;;;;;;0.00;0.00;;;14.00;99.90;;;;;;5053117;28;20039;-78
2022/09/19 13:41:41;;;;;;;0.00;0.00;;;14.00;99.90;;;;;;5071437;28;20040;-79